createdAt,value
2019-06-10T00:00:52.940Z,4.97
2019-06-10T00:03:24.495Z,4.90
2019-06-10T00:05:56.106Z,5.53
2019-06-10T00:08:30.701Z,5.67
2019-06-10T00:11:04.961Z,5.53
2019-06-10T00:13:35.180Z,5.37
2019-06-10T00:16:08.038Z,5.70
2019-06-10T00:18:43.003Z,5.27
2019-06-10T00:21:12.985Z,5.30
2019-06-10T00:23:44.568Z,5.70
2019-06-10T00:26:16.120Z,5.70
2019-06-10T00:28:47.699Z,5.73
2019-06-10T00:31:20.752Z,5.60
2019-06-10T00:33:52.470Z,5.60
2019-06-10T00:36:27.038Z,5.37
2019-06-10T00:38:59.328Z,5.80
2019-06-10T00:41:31.435Z,5.73
2019-06-10T00:44:04.085Z,5.40
2019-06-10T00:46:36.361Z,5.13
2019-06-10T00:49:09.830Z,5.50
2019-06-10T00:51:41.507Z,5.63
2019-06-10T00:54:15.407Z,5.80
2019-06-10T00:56:46.429Z,5.80
2019-06-10T00:59:17.977Z,6.77
2019-06-10T01:01:50.879Z,5.60
2019-06-10T01:04:22.629Z,6.20
2019-06-10T01:06:54.206Z,6.67
2019-06-10T01:09:25.860Z,5.57
2019-06-10T01:11:57.454Z,6.07
2019-06-10T01:14:28.988Z,5.20
2019-06-10T01:17:01.301Z,5.53
2019-06-10T01:19:33.969Z,5.80
2019-06-10T01:22:05.995Z,5.53
2019-06-10T01:24:37.709Z,5.30
2019-06-10T01:27:11.898Z,5.10
2019-06-10T01:29:42.541Z,5.23
2019-06-10T01:32:15.081Z,4.80
2019-06-10T01:34:46.752Z,5.13
2019-06-10T01:37:18.394Z,4.83
2019-06-10T01:39:51.522Z,4.43
2019-06-10T01:42:23.204Z,4.50
2019-06-10T01:44:54.760Z,5.03
2019-06-10T01:47:26.348Z,5.47
2019-06-10T01:49:57.909Z,5.30
2019-06-10T01:52:31.677Z,4.87
2019-06-10T01:55:03.292Z,5.20
2019-06-10T01:57:34.875Z,4.97
2019-06-10T02:00:09.952Z,4.67
2019-06-10T02:02:44.532Z,5.67
2019-06-10T02:05:15.970Z,4.80
2019-06-10T02:07:47.754Z,5.47
2019-06-10T02:10:22.546Z,5.40
2019-06-10T02:12:52.648Z,5.23
2019-06-10T02:15:24.220Z,4.60
2019-06-10T02:17:55.769Z,5.47
2019-06-10T02:20:27.419Z,5.30
2019-06-10T02:22:58.977Z,5.17
2019-06-10T02:25:30.582Z,4.97
2019-06-10T02:28:02.093Z,4.93
2019-06-10T02:30:43.135Z,5.20
2019-06-10T02:33:06.903Z,6.03
2019-06-10T02:35:44.390Z,5.60
2019-06-10T02:38:16.950Z,5.73
2019-06-10T02:40:45.048Z,6.13
2019-06-10T02:43:23.911Z,5.37
2019-06-10T02:45:53.044Z,5.90
2019-06-10T02:48:30.302Z,6.30
2019-06-10T02:51:08.129Z,7.30
2019-06-10T02:53:43.357Z,5.83
2019-06-10T02:56:14.918Z,5.53
2019-06-10T02:58:47.424Z,5.33
2019-06-10T03:01:21.480Z,5.80
2019-06-10T03:03:54.206Z,5.53
2019-06-10T03:06:33.374Z,5.33
2019-06-10T03:08:58.889Z,6.67
2019-06-10T03:11:36.470Z,6.47
2019-06-10T03:14:03.829Z,6.57
2019-06-10T03:16:42.292Z,6.03
2019-06-10T03:19:14.009Z,6.10
2019-06-10T03:21:45.578Z,5.80
2019-06-10T03:24:17.128Z,5.70
2019-06-10T03:26:48.699Z,4.80
2019-06-10T03:29:21.252Z,5.40
2019-06-10T03:31:55.178Z,4.90
2019-06-10T03:34:33.714Z,5.30
2019-06-10T03:37:02.339Z,4.90
2019-06-10T03:39:33.497Z,5.77
2019-06-10T03:42:05.076Z,5.17
2019-06-10T03:44:37.621Z,5.70
2019-06-10T03:47:09.195Z,5.40
2019-06-10T03:49:49.886Z,5.53
2019-06-10T03:52:14.075Z,6.10
2019-06-10T03:54:45.655Z,6.10
2019-06-10T03:57:17.227Z,6.17
2019-06-10T03:59:48.818Z,6.37
2019-06-10T04:02:23.454Z,5.10
2019-06-10T04:04:53.766Z,6.40
2019-06-10T04:07:28.252Z,6.27
2019-06-10T04:09:58.618Z,6.20
2019-06-10T04:12:32.586Z,6.30
2019-06-10T04:15:03.597Z,5.97
2019-06-10T04:17:35.224Z,6.10
2019-06-10T04:20:12.125Z,6.20
2019-06-10T04:22:40.886Z,6.53
2019-06-10T04:25:12.580Z,5.83
2019-06-10T04:27:44.123Z,6.27
2019-06-10T04:30:16.600Z,5.70
2019-06-10T04:32:48.595Z,5.50
2019-06-10T04:35:20.880Z,5.97
2019-06-10T04:37:53.456Z,6.00
2019-06-10T04:40:26.313Z,5.80
2019-06-10T04:42:58.299Z,5.93
2019-06-10T04:45:32.213Z,5.30
2019-06-10T04:48:03.233Z,5.10
2019-06-10T04:50:42.163Z,6.10
2019-06-10T04:53:08.034Z,4.93
2019-06-10T04:55:39.623Z,4.77
2019-06-10T04:58:12.978Z,5.27
2019-06-10T05:00:44.628Z,5.20
2019-06-10T05:03:16.203Z,4.80
2019-06-10T05:05:47.725Z,4.70
2019-06-10T05:08:19.275Z,5.27
2019-06-10T05:10:52.844Z,5.37
2019-06-10T05:13:25.574Z,5.60
2019-06-10T05:15:57.401Z,5.27
2019-06-10T05:18:30.218Z,5.80
2019-06-10T05:21:02.840Z,5.90
2019-06-10T05:23:34.817Z,5.80
2019-06-10T05:26:06.384Z,5.70
2019-06-10T05:28:37.940Z,6.53
2019-06-10T05:31:09.491Z,6.23
2019-06-10T05:33:42.611Z,6.03
2019-06-10T05:36:14.493Z,5.90
2019-06-10T05:38:46.182Z,6.00
2019-06-10T05:41:17.783Z,5.73
2019-06-10T05:43:49.342Z,6.27
2019-06-10T05:46:23.674Z,5.60
2019-06-10T05:48:54.239Z,6.80
2019-06-10T05:51:26.425Z,5.73
2019-06-10T05:53:59.221Z,6.00
2019-06-10T05:56:33.778Z,5.97
2019-06-10T05:59:04.453Z,6.20
2019-06-10T06:01:38.407Z,6.63
2019-06-10T06:04:09.322Z,6.60
2019-06-10T06:06:42.465Z,6.70
2019-06-10T06:09:14.218Z,6.20
2019-06-10T06:11:45.916Z,6.23
2019-06-10T06:14:17.575Z,5.67
2019-06-10T06:16:49.156Z,6.90
2019-06-10T06:19:22.976Z,6.27
2019-06-10T06:21:54.013Z,6.87
2019-06-10T06:24:25.655Z,7.20
2019-06-10T06:26:57.255Z,6.80
2019-06-10T06:29:28.924Z,6.80
2019-06-10T06:32:02.608Z,7.00
2019-06-10T06:34:35.791Z,6.47
2019-06-10T06:37:06.980Z,6.40
2019-06-10T06:39:38.633Z,6.63
2019-06-10T06:42:12.561Z,5.97
2019-06-10T06:44:43.529Z,6.27
2019-06-10T06:47:15.193Z,6.17
2019-06-10T06:49:46.760Z,6.47
2019-06-10T06:52:34.657Z,6.37
2019-06-10T06:54:53.034Z,5.80
2019-06-10T06:57:24.751Z,6.20
2019-06-10T06:59:56.390Z,6.17
2019-06-10T07:02:27.954Z,5.47
2019-06-10T07:04:59.536Z,5.43
2019-06-10T07:07:33.112Z,5.23
2019-06-10T07:10:06.175Z,5.60
2019-06-10T07:12:39.394Z,5.83
2019-06-10T07:15:12.914Z,6.20
2019-06-10T07:17:45.657Z,5.80
2019-06-10T07:20:17.615Z,5.17
2019-06-10T07:22:49.204Z,5.60
2019-06-10T07:25:23.005Z,5.73
2019-06-10T07:27:54.060Z,5.50
2019-06-10T07:30:26.024Z,5.70
2019-06-10T07:32:57.626Z,5.23
2019-06-10T07:35:29.207Z,5.10
2019-06-10T07:38:03.034Z,5.10
2019-06-10T07:40:35.911Z,5.80
2019-06-10T07:43:07.361Z,4.67
2019-06-10T07:45:40.819Z,5.30
2019-06-10T07:48:12.360Z,5.03
2019-06-10T07:50:45.672Z,5.00
2019-06-10T07:53:17.251Z,4.13
2019-06-10T07:55:48.812Z,5.00
2019-06-10T07:58:22.427Z,4.53
2019-06-10T08:00:53.700Z,4.90
2019-06-10T08:03:25.305Z,5.00
2019-06-10T08:05:56.891Z,5.13
2019-06-10T08:08:28.478Z,5.70
2019-06-10T08:11:03.070Z,5.20
2019-06-10T08:13:33.375Z,5.17
2019-06-10T08:16:05.032Z,5.30
2019-06-10T08:18:44.469Z,5.30
2019-06-10T08:21:12.152Z,6.00
2019-06-10T08:23:46.543Z,5.40
2019-06-10T08:26:16.669Z,5.40
2019-06-10T08:28:48.402Z,5.30
2019-06-10T08:31:22.374Z,5.53
2019-06-10T08:33:53.747Z,5.30
2019-06-10T08:36:25.373Z,5.80
2019-06-10T08:38:57.160Z,5.80
2019-06-10T08:41:28.802Z,6.13
2019-06-10T08:44:02.348Z,6.33
2019-06-10T08:46:33.619Z,5.70
2019-06-10T08:49:05.214Z,6.40
2019-06-10T08:51:37.105Z,6.70
2019-06-10T08:54:08.699Z,5.87
2019-06-10T08:56:42.884Z,6.47
2019-06-10T08:59:16.286Z,6.03
2019-06-10T09:01:51.555Z,6.80
2019-06-10T09:04:22.804Z,6.10
2019-06-10T09:06:54.466Z,5.90
2019-06-10T09:09:26.077Z,5.67
2019-06-10T09:11:57.654Z,4.73
2019-06-10T09:14:29.315Z,5.00
2019-06-10T09:17:03.444Z,5.40
2019-06-10T09:19:34.224Z,4.60
2019-06-10T09:22:05.827Z,4.40
2019-06-10T09:24:37.461Z,4.50
2019-06-10T09:27:09.070Z,4.80
2019-06-10T09:29:41.710Z,4.40
2019-06-10T09:32:13.957Z,4.93
2019-06-10T09:34:49.673Z,3.90
2019-06-10T09:37:18.846Z,7.40
2019-06-10T09:39:58.351Z,5.20
2019-06-10T09:42:24.019Z,5.03
2019-06-10T09:44:55.919Z,5.30
2019-06-10T09:47:28.477Z,4.70
2019-06-10T09:50:00.058Z,8.70
2019-06-10T09:52:32.850Z,4.90
2019-06-10T09:55:05.214Z,4.57
2019-06-10T09:57:37.257Z,3.77
2019-06-10T10:00:12.436Z,3.63
2019-06-10T10:02:48.003Z,3.67
2019-06-10T10:05:17.492Z,3.40
2019-06-10T10:07:52.106Z,2.90
2019-06-10T10:10:32.726Z,2.70
2019-06-10T10:13:04.626Z,3.40
2019-06-10T10:15:36.345Z,3.30
2019-06-10T10:18:09.990Z,2.98
2019-06-10T10:20:45.180Z,3.10
2019-06-10T10:23:15.882Z,2.70
2019-06-10T10:25:48.227Z,2.80
2019-06-10T10:28:23.007Z,3.00
2019-06-10T10:30:57.594Z,3.20
2019-06-10T10:33:30.133Z,2.90
2019-06-10T10:36:02.758Z,2.90
2019-06-10T10:38:34.901Z,2.73
2019-06-10T10:41:07.000Z,2.70
2019-06-10T10:43:38.671Z,2.70
2019-06-10T10:46:13.478Z,2.80
2019-06-10T10:48:44.969Z,2.60
2019-06-10T10:51:17.607Z,3.00
2019-06-10T10:54:16.952Z,3.05
2019-06-10T10:56:23.079Z,2.87
2019-06-10T10:58:56.361Z,2.90
2019-06-10T11:01:27.951Z,3.13
2019-06-10T11:04:02.714Z,3.20
2019-06-10T11:06:33.283Z,2.97
2019-06-10T11:09:08.887Z,2.67
2019-06-10T11:11:44.105Z,3.37
2019-06-10T11:14:15.555Z,3.40
2019-06-10T11:16:47.250Z,3.20
2019-06-10T11:19:19.201Z,3.10
2019-06-10T11:21:51.587Z,3.17
2019-06-10T11:24:36.367Z,3.27
2019-06-10T11:26:58.359Z,3.17
2019-06-10T11:29:32.707Z,3.27
2019-06-10T11:32:03.482Z,3.13
2019-06-10T11:34:35.178Z,2.93
2019-06-10T11:37:06.775Z,3.27
2019-06-10T11:39:38.801Z,3.33
2019-06-10T11:42:13.073Z,3.23
2019-06-10T11:44:43.687Z,3.40
2019-06-10T11:47:18.012Z,3.00
2019-06-10T11:49:52.290Z,3.30
2019-06-10T11:52:23.079Z,3.40
2019-06-10T11:55:05.437Z,3.07
2019-06-10T11:57:28.127Z,3.13
2019-06-10T11:59:59.783Z,3.40
2019-06-10T12:02:32.956Z,3.40
2019-06-10T12:05:05.030Z,3.07
2019-06-10T12:07:36.610Z,3.27
2019-06-10T12:10:12.905Z,3.17
2019-06-10T12:12:43.969Z,3.00
2019-06-10T12:15:16.154Z,3.17
2019-06-10T12:17:53.558Z,3.63
2019-06-10T12:20:22.822Z,2.80
2019-06-10T12:22:58.285Z,3.53
2019-06-10T12:25:36.850Z,3.40
2019-06-10T12:28:07.011Z,3.60
2019-06-10T12:30:35.515Z,3.57
2019-06-10T12:33:07.128Z,3.83
2019-06-10T12:35:38.728Z,3.50
2019-06-10T12:38:13.071Z,3.80
2019-06-10T12:40:43.612Z,3.80
2019-06-10T12:43:15.178Z,3.83
2019-06-10T12:45:46.765Z,3.90
2019-06-10T12:48:18.336Z,3.30
2019-06-10T12:50:49.954Z,3.87
2019-06-10T12:53:22.981Z,4.30
2019-06-10T12:55:55.836Z,4.33
2019-06-10T12:58:27.958Z,4.30
2019-06-10T13:00:59.637Z,4.17
2019-06-10T13:03:32.934Z,4.43
2019-06-10T13:06:09.054Z,4.33
2019-06-10T13:08:39.201Z,4.10
2019-06-10T13:11:13.274Z,4.63
2019-06-10T13:13:44.203Z,4.23
2019-06-10T13:16:17.596Z,4.37
2019-06-10T13:18:49.198Z,5.50
2019-06-10T13:21:22.742Z,6.63
2019-06-10T13:23:54.820Z,5.80
2019-06-10T13:26:27.304Z,5.03
2019-06-10T13:28:59.028Z,3.97
2019-06-10T13:31:32.873Z,4.40
2019-06-10T13:34:09.054Z,4.43
2019-06-10T13:36:37.264Z,4.33
2019-06-10T13:39:10.607Z,3.87
2019-06-10T13:41:43.852Z,4.30
2019-06-10T13:44:16.819Z,4.53
2019-06-10T13:46:48.603Z,4.27
2019-06-10T13:49:22.753Z,4.60
2019-06-10T13:51:53.513Z,3.80
2019-06-10T13:54:25.144Z,3.67
2019-06-10T13:56:56.726Z,4.20
2019-06-10T13:59:28.323Z,4.30
2019-06-10T14:01:59.819Z,4.13
2019-06-10T14:04:33.308Z,4.63
2019-06-10T14:07:08.668Z,4.17
2019-06-10T14:09:38.612Z,4.43
2019-06-10T14:12:14.746Z,4.13
2019-06-10T14:14:43.491Z,4.47
2019-06-10T14:17:19.014Z,4.10
2019-06-10T14:19:48.358Z,4.73
2019-06-10T14:22:22.662Z,4.60
2019-06-10T14:24:54.325Z,4.67
2019-06-10T14:27:25.928Z,4.97
2019-06-10T14:29:57.507Z,5.03
2019-06-10T14:32:29.133Z,6.20
2019-06-10T14:35:00.714Z,5.50
2019-06-10T14:37:38.921Z,5.27
2019-06-10T14:40:07.503Z,6.13
2019-06-10T14:42:39.546Z,6.40
2019-06-10T14:45:13.900Z,7.07
2019-06-10T14:47:45.002Z,9.97
2019-06-10T14:50:17.421Z,7.27
2019-06-10T14:52:49.205Z,6.30
2019-06-10T14:55:23.098Z,6.10
2019-06-10T14:57:54.040Z,6.60
2019-06-10T15:00:25.723Z,6.50
2019-06-10T15:02:57.313Z,6.50
2019-06-10T15:05:28.905Z,6.97
2019-06-10T15:08:03.152Z,6.60
2019-06-10T15:10:33.824Z,6.93
2019-06-10T15:13:05.460Z,6.47
2019-06-10T15:15:37.056Z,6.90
2019-06-10T15:18:09.323Z,5.10
2019-06-10T15:20:42.848Z,6.53
2019-06-10T15:23:17.033Z,5.10
2019-06-10T15:25:52.874Z,5.20
2019-06-10T15:28:23.285Z,5.03
2019-06-10T15:30:54.489Z,5.70
2019-06-10T15:33:26.206Z,5.70
2019-06-10T15:35:57.883Z,5.10
2019-06-10T15:38:29.471Z,5.20
2019-06-10T15:41:01.093Z,5.70
2019-06-10T15:43:34.562Z,5.10
2019-06-10T15:46:06.185Z,6.30
2019-06-10T15:48:37.871Z,6.20
2019-06-10T15:51:11.025Z,5.90
2019-06-10T15:53:43.200Z,5.90
2019-06-10T15:56:27.181Z,5.97
2019-06-10T15:58:48.824Z,5.77
2019-06-10T16:01:25.286Z,5.97
2019-06-10T16:03:53.674Z,6.33
2019-06-10T16:06:25.264Z,6.03
2019-06-10T16:08:56.872Z,6.10
2019-06-10T16:11:41.077Z,6.57
2019-06-10T16:14:14.666Z,6.57
2019-06-10T16:16:46.453Z,6.20
2019-06-10T16:19:19.546Z,6.30
2019-06-10T16:21:52.468Z,6.30
2019-06-10T16:24:27.331Z,6.70
2019-06-10T16:26:57.729Z,6.60
2019-06-10T16:29:29.305Z,5.87
2019-06-10T16:32:02.594Z,6.37
2019-06-10T16:34:34.335Z,6.40
2019-06-10T16:37:05.983Z,6.27
2019-06-10T16:39:37.604Z,9.80
2019-06-10T16:42:09.354Z,9.63
2019-06-10T16:44:42.361Z,8.53
2019-06-10T16:47:14.180Z,7.23
2019-06-10T16:49:45.802Z,6.93
2019-06-10T16:52:17.480Z,7.10
2019-06-10T16:54:49.081Z,6.83
2019-06-10T16:57:23.714Z,8.43
2019-06-10T16:59:54.012Z,7.77
2019-06-10T17:02:26.876Z,8.50
2019-06-10T17:04:58.729Z,9.13
2019-06-10T17:07:32.702Z,8.90
2019-06-10T17:10:03.628Z,9.60
2019-06-10T17:12:35.216Z,8.00
2019-06-10T17:15:08.520Z,8.17
2019-06-10T17:17:40.453Z,7.83
2019-06-10T17:20:13.094Z,8.23
2019-06-10T17:22:44.778Z,9.60
2019-06-10T17:25:16.463Z,10.20
2019-06-10T17:27:48.183Z,9.27
2019-06-10T17:30:22.389Z,10.23
2019-06-10T17:32:53.394Z,43.47
2019-06-10T17:35:26.172Z,35.80
2019-06-10T17:37:57.959Z,17.43
2019-06-10T17:40:29.640Z,14.57
2019-06-10T17:43:02.417Z,12.10
2019-06-10T17:45:34.128Z,10.20
2019-06-10T17:48:06.809Z,10.00
2019-06-10T17:50:38.372Z,8.90
2019-06-10T17:53:12.566Z,10.30
2019-06-10T17:55:43.381Z,10.40
2019-06-10T17:58:14.992Z,10.10
2019-06-10T18:00:46.645Z,10.70
2019-06-10T18:03:18.220Z,9.60
2019-06-10T18:05:49.802Z,9.20
2019-06-10T18:08:22.962Z,10.93
2019-06-10T18:10:54.787Z,9.33
2019-06-10T18:13:26.399Z,10.20
2019-06-10T18:15:58.019Z,7.93
2019-06-10T18:18:30.570Z,8.20
2019-06-10T18:21:03.573Z,8.20
2019-06-10T18:23:35.392Z,8.57
2019-06-10T18:26:06.993Z,7.30
2019-06-10T18:28:57.850Z,7.63
2019-06-10T18:31:11.929Z,8.20
2019-06-10T18:33:43.748Z,8.77
2019-06-10T18:36:15.385Z,8.00
2019-06-10T18:38:47.036Z,8.97
2019-06-10T18:41:18.611Z,7.80
2019-06-10T18:43:50.206Z,8.20
2019-06-10T18:46:23.202Z,9.10
2019-06-10T18:48:54.905Z,7.77
2019-06-10T18:51:27.206Z,8.17
2019-06-10T18:53:59.106Z,9.10
2019-06-10T18:56:33.682Z,9.70
2019-06-10T18:59:15.677Z,10.40
2019-06-10T19:01:38.676Z,10.03
2019-06-10T19:04:12.830Z,9.40
2019-06-10T19:06:43.824Z,11.53
2019-06-10T19:09:15.570Z,10.10
2019-06-10T19:11:47.220Z,9.93
2019-06-10T19:14:18.911Z,10.10
2019-06-10T19:16:52.449Z,9.57
2019-06-10T19:19:23.879Z,9.60
2019-06-10T19:22:05.437Z,9.50
2019-06-10T19:24:30.273Z,10.20
2019-06-10T19:27:05.425Z,9.33
2019-06-10T19:29:42.952Z,9.97
2019-06-10T19:32:12.426Z,9.23
2019-06-10T19:34:48.211Z,9.43
2019-06-10T19:37:16.733Z,9.97
2019-06-10T19:39:53.178Z,10.70
2019-06-10T19:42:21.731Z,10.50
2019-06-10T19:44:53.361Z,9.60
2019-06-10T19:47:24.983Z,10.33
2019-06-10T19:49:56.602Z,10.83
2019-06-10T19:52:28.231Z,9.63
2019-06-10T19:55:02.516Z,10.10
2019-06-10T19:57:34.307Z,9.80
2019-06-10T20:00:12.170Z,9.57
2019-06-10T20:02:44.528Z,9.90
2019-06-10T20:05:14.915Z,8.97
2019-06-10T20:07:50.247Z,9.33
2019-06-10T20:10:19.818Z,9.60
2019-06-10T20:12:53.735Z,10.17
2019-06-10T20:15:25.402Z,9.50
2019-06-10T20:17:56.987Z,11.20
2019-06-10T20:20:28.602Z,10.90
2019-06-10T20:23:03.157Z,11.63
2019-06-10T20:25:33.539Z,12.20
2019-06-10T20:28:05.288Z,12.07
2019-06-10T20:30:37.310Z,12.10
2019-06-10T20:33:09.104Z,12.47
2019-06-10T20:35:42.069Z,12.93
2019-06-10T20:38:13.789Z,12.70
2019-06-10T20:40:46.023Z,13.63
2019-06-10T20:43:18.894Z,14.50
2019-06-10T20:45:50.517Z,12.90
2019-06-10T20:48:22.447Z,13.70
2019-06-10T20:50:55.403Z,12.47
2019-06-10T20:53:27.014Z,13.77
2019-06-10T20:55:58.581Z,13.87
2019-06-10T20:58:30.195Z,14.40
2019-06-10T21:01:04.679Z,14.70
2019-06-10T21:03:35.570Z,14.70
2019-06-10T21:06:07.099Z,14.60
2019-06-10T21:08:39.446Z,14.30
2019-06-10T21:11:12.908Z,15.93
2019-06-10T21:13:48.772Z,16.07
2019-06-10T21:16:22.914Z,15.80
2019-06-10T21:18:55.534Z,15.73
2019-06-10T21:21:27.553Z,14.27
2019-06-10T21:23:59.166Z,16.00
2019-06-10T21:26:32.532Z,15.20
2019-06-10T21:29:04.328Z,16.10
2019-06-10T21:31:36.928Z,16.07
2019-06-10T21:34:08.561Z,13.70
2019-06-10T21:36:41.233Z,12.63
2019-06-10T21:39:12.865Z,14.87
2019-06-10T21:41:45.636Z,13.20
2019-06-10T21:44:17.784Z,12.40
2019-06-10T21:46:50.326Z,11.67
2019-06-10T21:49:23.638Z,12.20
2019-06-10T21:51:57.086Z,12.63
2019-06-10T21:54:28.583Z,11.97
2019-06-10T21:57:02.482Z,12.63
2019-06-10T21:59:33.452Z,13.53
2019-06-10T22:02:05.259Z,14.83
2019-06-10T22:04:36.892Z,15.47
2019-06-10T22:07:08.512Z,14.80
2019-06-10T22:09:42.406Z,15.67
2019-06-10T22:12:13.468Z,15.30
2019-06-10T22:14:46.189Z,14.70
2019-06-10T22:17:17.731Z,15.50
2019-06-10T22:19:50.579Z,14.10
2019-06-10T22:22:22.828Z,13.10
2019-06-10T22:24:55.183Z,13.57
2019-06-10T22:27:27.684Z,12.60
2019-06-10T22:29:59.266Z,12.03
2019-06-10T22:32:32.324Z,11.27
2019-06-10T22:35:03.953Z,10.40
2019-06-10T22:37:35.539Z,10.33
2019-06-10T22:40:07.412Z,10.63
2019-06-10T22:42:39.067Z,11.10
2019-06-10T22:45:13.051Z,10.23
2019-06-10T22:47:44.214Z,8.50
2019-06-10T22:50:15.831Z,8.93
2019-06-10T22:52:47.404Z,8.80
2019-06-10T22:55:18.997Z,8.67
2019-06-10T22:57:51.878Z,8.90
2019-06-10T23:00:23.863Z,7.37
2019-06-10T23:02:56.484Z,7.60
2019-06-10T23:05:28.677Z,6.23
2019-06-10T23:08:02.308Z,6.50
2019-06-10T23:10:33.834Z,7.07
2019-06-10T23:13:05.519Z,6.80
2019-06-10T23:15:37.149Z,5.60
2019-06-10T23:18:08.729Z,6.10
2019-06-10T23:20:42.580Z,6.10
2019-06-10T23:23:13.582Z,5.80
2019-06-10T23:25:45.149Z,6.40
2019-06-10T23:28:16.719Z,5.87
2019-06-10T23:30:48.334Z,6.10
2019-06-10T23:33:19.927Z,5.30
2019-06-10T23:35:52.556Z,4.83
2019-06-10T23:38:24.442Z,5.40
2019-06-10T23:40:57.012Z,4.97
2019-06-10T23:43:28.759Z,4.10
2019-06-10T23:46:01.966Z,4.93
2019-06-10T23:48:33.590Z,3.73
2019-06-10T23:51:05.284Z,3.70
2019-06-10T23:53:38.617Z,3.40
2019-06-10T23:56:10.197Z,3.73
2019-06-10T23:58:43.319Z,3.40
